sensor_id;sensor_type;location;lat;lon;timestamp;temperature;humidity
10344;DHT22;5217;43.960;10.954;2023-12-14T00:01:33;16.20;99.90
10344;DHT22;5217;43.960;10.954;2023-12-14T00:04:02;16.20;99.90
10344;DHT22;5217;43.960;10.954;2023-12-14T00:06:33;16.20;99.90
10344;DHT22;5217;43.960;10.954;2023-12-14T00:09:02;16.10;99.90
10344;DHT22;5217;43.960;10.954;2023-12-14T00:11:31;16.10;99.90
10344;DHT22;5217;43.960;10.954;2023-12-14T00:13:59;16.10;99.90
10344;DHT22;5217;43.960;10.954;2023-12-14T00:16:28;16.10;99.90
10344;DHT22;5217;43.960;10.954;2023-12-14T00:18:57;16.10;99.90
10344;DHT22;5217;43.960;10.954;2023-12-14T00:21:29;16.10;99.90
10344;DHT22;5217;43.960;10.954;2023-12-14T00:23:59;16.10;99.90
10344;DHT22;5217;43.960;10.954;2023-12-14T00:26:27;16.10;99.90
10344;DHT22;5217;43.960;10.954;2023-12-14T00:28:56;16.00;99.90
10344;DHT22;5217;43.960;10.954;2023-12-14T00:31:28;16.00;99.90
10344;DHT22;5217;43.960;10.954;2023-12-14T00:33:57;16.00;99.90
10344;DHT22;5217;43.960;10.954;2023-12-14T00:36:26;16.00;99.90
10344;DHT22;5217;43.960;10.954;2023-12-14T00:38:55;16.00;99.90
10344;DHT22;5217;43.960;10.954;2023-12-14T00:41:25;16.10;99.90
10344;DHT22;5217;43.960;10.954;2023-12-14T00:43:53;16.10;99.90
10344;DHT22;5217;43.960;10.954;2023-12-14T00:46:22;16.10;99.90
10344;DHT22;5217;43.960;10.954;2023-12-14T00:48:50;16.00;99.90
10344;DHT22;5217;43.960;10.954;2023-12-14T00:51:19;16.00;99.90
10344;DHT22;5217;43.960;10.954;2023-12-14T00:53:48;16.00;99.90
10344;DHT22;5217;43.960;10.954;2023-12-14T00:56:17;16.00;99.90
10344;DHT22;5217;43.960;10.954;2023-12-14T00:58:49;16.00;99.90
10344;DHT22;5217;43.960;10.954;2023-12-14T01:01:17;16.00;99.90
10344;DHT22;5217;43.960;10.954;2023-12-14T01:03:46;16.00;99.90
10344;DHT22;5217;43.960;10.954;2023-12-14T01:06:14;16.00;99.90
10344;DHT22;5217;43.960;10.954;2023-12-14T01:08:43;16.00;99.90
10344;DHT22;5217;43.960;10.954;2023-12-14T01:11:11;15.90;99.90
10344;DHT22;5217;43.960;10.954;2023-12-14T01:13:40;16.00;99.90
10344;DHT22;5217;43.960;10.954;2023-12-14T01:16:10;15.90;99.90
10344;DHT22;5217;43.960;10.954;2023-12-14T01:18:38;16.00;99.90
10344;DHT22;5217;43.960;10.954;2023-12-14T01:21:07;15.90;99.90
10344;DHT22;5217;43.960;10.954;2023-12-14T01:23:35;15.90;99.90
10344;DHT22;5217;43.960;10.954;2023-12-14T01:26:04;15.90;99.90
10344;DHT22;5217;43.960;10.954;2023-12-14T01:28:32;15.90;99.90
10344;DHT22;5217;43.960;10.954;2023-12-14T01:31:00;15.90;99.90
10344;DHT22;5217;43.960;10.954;2023-12-14T01:33:30;15.90;99.90
10344;DHT22;5217;43.960;10.954;2023-12-14T01:35:59;15.90;99.90
10344;DHT22;5217;43.960;10.954;2023-12-14T01:38:27;15.80;99.90
10344;DHT22;5217;43.960;10.954;2023-12-14T01:40:55;15.80;99.90
10344;DHT22;5217;43.960;10.954;2023-12-14T01:43:24;15.80;99.90
10344;DHT22;5217;43.960;10.954;2023-12-14T01:45:53;15.80;99.90
10344;DHT22;5217;43.960;10.954;2023-12-14T01:48:21;15.80;99.90
10344;DHT22;5217;43.960;10.954;2023-12-14T01:50:51;15.70;99.90
10344;DHT22;5217;43.960;10.954;2023-12-14T01:53:19;15.70;99.90
10344;DHT22;5217;43.960;10.954;2023-12-14T01:55:48;15.70;99.90
10344;DHT22;5217;43.960;10.954;2023-12-14T01:58:16;15.70;99.90
10344;DHT22;5217;43.960;10.954;2023-12-14T02:00:52;15.70;99.90
10344;DHT22;5217;43.960;10.954;2023-12-14T02:03:26;15.70;99.90
10344;DHT22;5217;43.960;10.954;2023-12-14T02:05:56;15.70;99.90
10344;DHT22;5217;43.960;10.954;2023-12-14T02:08:25;15.70;99.90
10344;DHT22;5217;43.960;10.954;2023-12-14T02:17:03;15.60;99.90
10344;DHT22;5217;43.960;10.954;2023-12-14T02:19:32;15.60;99.90
10344;DHT22;5217;43.960;10.954;2023-12-14T02:22:01;15.60;99.90
10344;DHT22;5217;43.960;10.954;2023-12-14T02:24:30;15.60;99.90
10344;DHT22;5217;43.960;10.954;2023-12-14T02:26:59;15.60;99.90
10344;DHT22;5217;43.960;10.954;2023-12-14T02:29:30;15.50;99.90
10344;DHT22;5217;43.960;10.954;2023-12-14T02:31:59;15.50;99.90
10344;DHT22;5217;43.960;10.954;2023-12-14T02:34:28;15.60;99.90
10344;DHT22;5217;43.960;10.954;2023-12-14T02:36:56;15.60;99.90
10344;DHT22;5217;43.960;10.954;2023-12-14T02:39:25;15.50;99.90
10344;DHT22;5217;43.960;10.954;2023-12-14T02:41:55;15.50;99.90
10344;DHT22;5217;43.960;10.954;2023-12-14T02:44:23;15.50;99.90
10344;DHT22;5217;43.960;10.954;2023-12-14T02:46:51;15.50;99.90
10344;DHT22;5217;43.960;10.954;2023-12-14T02:49:20;15.40;99.90
10344;DHT22;5217;43.960;10.954;2023-12-14T02:51:48;15.50;99.90
10344;DHT22;5217;43.960;10.954;2023-12-14T02:54:17;15.50;99.90
10344;DHT22;5217;43.960;10.954;2023-12-14T02:56:45;15.50;99.90
10344;DHT22;5217;43.960;10.954;2023-12-14T02:59:15;15.40;99.90
10344;DHT22;5217;43.960;10.954;2023-12-14T03:01:43;15.40;99.90
10344;DHT22;5217;43.960;10.954;2023-12-14T03:04:12;15.40;99.90
10344;DHT22;5217;43.960;10.954;2023-12-14T03:06:40;15.40;99.90
10344;DHT22;5217;43.960;10.954;2023-12-14T03:09:08;15.40;99.90
10344;DHT22;5217;43.960;10.954;2023-12-14T03:11:37;15.40;99.90
10344;DHT22;5217;43.960;10.954;2023-12-14T03:14:05;15.40;99.90
10344;DHT22;5217;43.960;10.954;2023-12-14T03:16:35;15.30;99.90
10344;DHT22;5217;43.960;10.954;2023-12-14T03:19:04;15.40;99.90
10344;DHT22;5217;43.960;10.954;2023-12-14T03:21:32;15.40;99.90
10344;DHT22;5217;43.960;10.954;2023-12-14T03:24:00;15.30;99.90
10344;DHT22;5217;43.960;10.954;2023-12-14T03:26:29;15.40;99.90
10344;DHT22;5217;43.960;10.954;2023-12-14T03:28:57;15.30;99.90
10344;DHT22;5217;43.960;10.954;2023-12-14T03:31:26;15.30;99.90
10344;DHT22;5217;43.960;10.954;2023-12-14T03:33:56;15.30;99.90
10344;DHT22;5217;43.960;10.954;2023-12-14T03:36:24;15.40;99.90
10344;DHT22;5217;43.960;10.954;2023-12-14T03:38:53;15.40;99.90
10344;DHT22;5217;43.960;10.954;2023-12-14T03:41:21;15.30;99.90
10344;DHT22;5217;43.960;10.954;2023-12-14T03:43:50;15.40;99.90
10344;DHT22;5217;43.960;10.954;2023-12-14T03:46:18;15.40;99.90
10344;DHT22;5217;43.960;10.954;2023-12-14T03:48:46;15.40;99.90
10344;DHT22;5217;43.960;10.954;2023-12-14T03:51:19;15.40;99.90
10344;DHT22;5217;43.960;10.954;2023-12-14T03:53:48;15.40;99.90
10344;DHT22;5217;43.960;10.954;2023-12-14T03:56:16;15.40;99.90
10344;DHT22;5217;43.960;10.954;2023-12-14T03:58:44;15.30;99.90
10344;DHT22;5217;43.960;10.954;2023-12-14T04:01:17;15.30;99.90
10344;DHT22;5217;43.960;10.954;2023-12-14T04:03:46;15.40;99.90
10344;DHT22;5217;43.960;10.954;2023-12-14T04:06:14;15.30;99.90
10344;DHT22;5217;43.960;10.954;2023-12-14T04:08:44;15.30;99.90
10344;DHT22;5217;43.960;10.954;2023-12-14T04:11:13;15.30;99.90
10344;DHT22;5217;43.960;10.954;2023-12-14T04:13:41;15.40;99.90
10344;DHT22;5217;43.960;10.954;2023-12-14T04:16:09;15.40;99.90
10344;DHT22;5217;43.960;10.954;2023-12-14T04:18:38;15.40;99.90
10344;DHT22;5217;43.960;10.954;2023-12-14T04:21:07;15.40;99.90
10344;DHT22;5217;43.960;10.954;2023-12-14T04:23:36;15.40;99.90
10344;DHT22;5217;43.960;10.954;2023-12-14T04:26:06;15.30;99.90
10344;DHT22;5217;43.960;10.954;2023-12-14T04:28:34;15.30;99.90
10344;DHT22;5217;43.960;10.954;2023-12-14T04:31:03;15.40;99.90
10344;DHT22;5217;43.960;10.954;2023-12-14T04:33:32;15.30;99.90
10344;DHT22;5217;43.960;10.954;2023-12-14T04:36:00;15.30;99.90
10344;DHT22;5217;43.960;10.954;2023-12-14T04:38:29;15.30;99.90
10344;DHT22;5217;43.960;10.954;2023-12-14T04:40:57;15.30;99.90
10344;DHT22;5217;43.960;10.954;2023-12-14T04:43:27;15.30;99.90
10344;DHT22;5217;43.960;10.954;2023-12-14T04:45:57;15.30;99.90
10344;DHT22;5217;43.960;10.954;2023-12-14T04:48:26;15.30;99.90
10344;DHT22;5217;43.960;10.954;2023-12-14T04:50:55;15.30;99.90
10344;DHT22;5217;43.960;10.954;2023-12-14T04:53:23;15.30;99.90
10344;DHT22;5217;43.960;10.954;2023-12-14T04:55:52;15.30;99.90
10344;DHT22;5217;43.960;10.954;2023-12-14T04:58:21;15.30;99.90
10344;DHT22;5217;43.960;10.954;2023-12-14T05:00:51;15.30;99.90
10344;DHT22;5217;43.960;10.954;2023-12-14T05:03:20;15.30;99.90
10344;DHT22;5217;43.960;10.954;2023-12-14T05:05:49;15.20;99.90
10344;DHT22;5217;43.960;10.954;2023-12-14T05:08:17;15.30;99.90
10344;DHT22;5217;43.960;10.954;2023-12-14T05:10:46;15.20;99.90
10344;DHT22;5217;43.960;10.954;2023-12-14T05:13:14;15.20;99.90
10344;DHT22;5217;43.960;10.954;2023-12-14T05:15:43;15.20;99.90
10344;DHT22;5217;43.960;10.954;2023-12-14T05:18:13;15.20;99.90
10344;DHT22;5217;43.960;10.954;2023-12-14T05:20:41;15.20;99.90
10344;DHT22;5217;43.960;10.954;2023-12-14T05:23:10;15.20;99.90
10344;DHT22;5217;43.960;10.954;2023-12-14T05:25:39;15.20;99.90
10344;DHT22;5217;43.960;10.954;2023-12-14T05:28:07;15.10;99.90
10344;DHT22;5217;43.960;10.954;2023-12-14T05:30:36;15.20;99.90
10344;DHT22;5217;43.960;10.954;2023-12-14T05:33:05;15.10;99.90
10344;DHT22;5217;43.960;10.954;2023-12-14T05:35:39;15.10;99.90
10344;DHT22;5217;43.960;10.954;2023-12-14T05:38:07;15.10;99.90
10344;DHT22;5217;43.960;10.954;2023-12-14T05:40:36;15.20;99.90
10344;DHT22;5217;43.960;10.954;2023-12-14T05:43:05;15.10;99.90
10344;DHT22;5217;43.960;10.954;2023-12-14T05:45:33;15.20;99.90
10344;DHT22;5217;43.960;10.954;2023-12-14T05:48:02;15.20;99.90
10344;DHT22;5217;43.960;10.954;2023-12-14T05:50:32;15.20;99.90
10344;DHT22;5217;43.960;10.954;2023-12-14T05:53:02;15.10;99.90
10344;DHT22;5217;43.960;10.954;2023-12-14T05:55:31;15.10;99.90
10344;DHT22;5217;43.960;10.954;2023-12-14T05:58:00;15.10;99.90
10344;DHT22;5217;43.960;10.954;2023-12-14T06:00:28;15.10;99.90
10344;DHT22;5217;43.960;10.954;2023-12-14T06:02:57;15.10;99.90
10344;DHT22;5217;43.960;10.954;2023-12-14T06:05:25;15.00;99.90
10344;DHT22;5217;43.960;10.954;2023-12-14T06:07:54;15.10;99.90
10344;DHT22;5217;43.960;10.954;2023-12-14T06:10:24;15.00;99.90
10344;DHT22;5217;43.960;10.954;2023-12-14T06:12:53;15.10;99.90
10344;DHT22;5217;43.960;10.954;2023-12-14T06:15:21;15.00;99.90
10344;DHT22;5217;43.960;10.954;2023-12-14T06:17:50;15.00;99.90
10344;DHT22;5217;43.960;10.954;2023-12-14T06:20:19;15.00;99.90
10344;DHT22;5217;43.960;10.954;2023-12-14T06:22:48;15.00;99.90
10344;DHT22;5217;43.960;10.954;2023-12-14T06:25:16;15.00;99.90
10344;DHT22;5217;43.960;10.954;2023-12-14T06:27:46;15.00;99.90
10344;DHT22;5217;43.960;10.954;2023-12-14T06:30:15;15.00;99.90
10344;DHT22;5217;43.960;10.954;2023-12-14T06:32:44;15.00;99.90
10344;DHT22;5217;43.960;10.954;2023-12-14T06:35:12;14.90;99.90
10344;DHT22;5217;43.960;10.954;2023-12-14T06:37:41;15.00;99.90
10344;DHT22;5217;43.960;10.954;2023-12-14T06:40:10;15.00;99.90
10344;DHT22;5217;43.960;10.954;2023-12-14T06:42:39;15.00;99.90
10344;DHT22;5217;43.960;10.954;2023-12-14T06:45:12;15.00;99.90
10344;DHT22;5217;43.960;10.954;2023-12-14T06:47:42;15.00;99.90
10344;DHT22;5217;43.960;10.954;2023-12-14T06:50:13;15.00;99.90
10344;DHT22;5217;43.960;10.954;2023-12-14T06:52:42;15.00;99.90
10344;DHT22;5217;43.960;10.954;2023-12-14T06:55:10;15.00;99.90
10344;DHT22;5217;43.960;10.954;2023-12-14T06:57:42;15.00;99.90
10344;DHT22;5217;43.960;10.954;2023-12-14T07:00:14;15.00;99.90
10344;DHT22;5217;43.960;10.954;2023-12-14T07:02:44;15.00;99.90
10344;DHT22;5217;43.960;10.954;2023-12-14T07:05:14;14.90;99.90
10344;DHT22;5217;43.960;10.954;2023-12-14T07:07:44;15.00;99.90
10344;DHT22;5217;43.960;10.954;2023-12-14T07:10:12;15.00;99.90
10344;DHT22;5217;43.960;10.954;2023-12-14T07:12:41;15.00;99.90
10344;DHT22;5217;43.960;10.954;2023-12-14T07:15:10;15.00;99.90
10344;DHT22;5217;43.960;10.954;2023-12-14T07:17:39;15.00;99.90
10344;DHT22;5217;43.960;10.954;2023-12-14T07:20:09;15.00;99.90
10344;DHT22;5217;43.960;10.954;2023-12-14T07:22:37;15.00;99.90
10344;DHT22;5217;43.960;10.954;2023-12-14T07:25:05;15.00;99.90
10344;DHT22;5217;43.960;10.954;2023-12-14T07:27:34;15.00;99.90
10344;DHT22;5217;43.960;10.954;2023-12-14T07:30:03;15.00;99.90
10344;DHT22;5217;43.960;10.954;2023-12-14T07:32:31;15.00;99.90
10344;DHT22;5217;43.960;10.954;2023-12-14T07:35:02;15.00;99.90
10344;DHT22;5217;43.960;10.954;2023-12-14T07:37:30;15.00;99.90
10344;DHT22;5217;43.960;10.954;2023-12-14T07:39:59;15.00;99.90
10344;DHT22;5217;43.960;10.954;2023-12-14T07:42:27;15.00;99.90
10344;DHT22;5217;43.960;10.954;2023-12-14T07:44:55;14.90;99.90
10344;DHT22;5217;43.960;10.954;2023-12-14T07:47:24;14.90;99.90
10344;DHT22;5217;43.960;10.954;2023-12-14T07:49:52;15.00;99.90
10344;DHT22;5217;43.960;10.954;2023-12-14T07:52:23;15.00;99.90
10344;DHT22;5217;43.960;10.954;2023-12-14T07:54:51;15.00;99.90
10344;DHT22;5217;43.960;10.954;2023-12-14T07:57:19;14.90;99.90
10344;DHT22;5217;43.960;10.954;2023-12-14T07:59:48;15.00;99.90
10344;DHT22;5217;43.960;10.954;2023-12-14T08:02:16;15.00;99.90
10344;DHT22;5217;43.960;10.954;2023-12-14T08:04:45;15.00;99.90
10344;DHT22;5217;43.960;10.954;2023-12-14T08:07:13;15.00;99.90
10344;DHT22;5217;43.960;10.954;2023-12-14T08:09:43;15.00;99.90
10344;DHT22;5217;43.960;10.954;2023-12-14T08:12:11;15.00;99.90
10344;DHT22;5217;43.960;10.954;2023-12-14T08:14:40;14.90;99.90
10344;DHT22;5217;43.960;10.954;2023-12-14T08:17:10;15.00;99.90
10344;DHT22;5217;43.960;10.954;2023-12-14T08:19:39;14.90;99.90
10344;DHT22;5217;43.960;10.954;2023-12-14T08:22:08;15.00;99.90
10344;DHT22;5217;43.960;10.954;2023-12-14T08:24:38;15.00;99.90
10344;DHT22;5217;43.960;10.954;2023-12-14T08:27:08;15.00;99.90
10344;DHT22;5217;43.960;10.954;2023-12-14T08:29:37;15.00;99.90
10344;DHT22;5217;43.960;10.954;2023-12-14T08:32:06;15.00;99.90
10344;DHT22;5217;43.960;10.954;2023-12-14T08:34:34;15.00;99.90
10344;DHT22;5217;43.960;10.954;2023-12-14T08:37:03;15.00;99.90
10344;DHT22;5217;43.960;10.954;2023-12-14T08:39:32;15.00;99.90
10344;DHT22;5217;43.960;10.954;2023-12-14T08:42:00;15.00;99.90
10344;DHT22;5217;43.960;10.954;2023-12-14T08:44:30;15.10;99.90
10344;DHT22;5217;43.960;10.954;2023-12-14T08:46:58;15.00;99.90
10344;DHT22;5217;43.960;10.954;2023-12-14T08:49:27;15.10;99.90
10344;DHT22;5217;43.960;10.954;2023-12-14T08:51:55;15.10;99.90
10344;DHT22;5217;43.960;10.954;2023-12-14T08:54:24;15.10;99.90
10344;DHT22;5217;43.960;10.954;2023-12-14T08:56:52;15.10;99.90
10344;DHT22;5217;43.960;10.954;2023-12-14T08:59:21;15.10;99.90
10344;DHT22;5217;43.960;10.954;2023-12-14T09:01:51;15.10;99.90
10344;DHT22;5217;43.960;10.954;2023-12-14T09:04:20;15.10;99.90
10344;DHT22;5217;43.960;10.954;2023-12-14T09:06:49;15.20;99.90
10344;DHT22;5217;43.960;10.954;2023-12-14T09:09:18;15.20;99.90
10344;DHT22;5217;43.960;10.954;2023-12-14T09:11:46;15.20;99.90
10344;DHT22;5217;43.960;10.954;2023-12-14T09:14:19;15.20;99.90
10344;DHT22;5217;43.960;10.954;2023-12-14T09:16:47;15.10;99.90
10344;DHT22;5217;43.960;10.954;2023-12-14T09:19:17;15.20;99.90
10344;DHT22;5217;43.960;10.954;2023-12-14T09:21:45;15.20;99.90
10344;DHT22;5217;43.960;10.954;2023-12-14T09:24:14;15.20;99.90
10344;DHT22;5217;43.960;10.954;2023-12-14T09:26:42;15.20;99.90
10344;DHT22;5217;43.960;10.954;2023-12-14T09:29:11;15.20;99.90
10344;DHT22;5217;43.960;10.954;2023-12-14T09:31:41;15.20;99.90
10344;DHT22;5217;43.960;10.954;2023-12-14T09:34:10;15.20;99.90
10344;DHT22;5217;43.960;10.954;2023-12-14T09:36:40;15.20;99.90
10344;DHT22;5217;43.960;10.954;2023-12-14T09:39:08;15.20;99.90
10344;DHT22;5217;43.960;10.954;2023-12-14T09:41:38;15.20;99.90
10344;DHT22;5217;43.960;10.954;2023-12-14T09:44:07;15.20;99.90
10344;DHT22;5217;43.960;10.954;2023-12-14T09:46:37;15.20;99.90
10344;DHT22;5217;43.960;10.954;2023-12-14T09:49:09;15.20;99.90
10344;DHT22;5217;43.960;10.954;2023-12-14T09:51:40;15.20;99.90
10344;DHT22;5217;43.960;10.954;2023-12-14T09:54:08;15.30;99.90
10344;DHT22;5217;43.960;10.954;2023-12-14T09:56:45;15.20;99.90
10344;DHT22;5217;43.960;10.954;2023-12-14T09:59:14;15.20;99.90
10344;DHT22;5217;43.960;10.954;2023-12-14T10:01:42;15.30;99.90
10344;DHT22;5217;43.960;10.954;2023-12-14T10:04:13;15.30;99.90
10344;DHT22;5217;43.960;10.954;2023-12-14T10:06:45;15.30;99.90
10344;DHT22;5217;43.960;10.954;2023-12-14T10:09:14;15.30;99.90
10344;DHT22;5217;43.960;10.954;2023-12-14T10:11:43;15.20;99.90
10344;DHT22;5217;43.960;10.954;2023-12-14T10:14:19;15.30;99.90
10344;DHT22;5217;43.960;10.954;2023-12-14T10:16:49;15.30;99.90
10344;DHT22;5217;43.960;10.954;2023-12-14T10:19:19;15.30;99.90
10344;DHT22;5217;43.960;10.954;2023-12-14T10:21:50;15.30;99.90
10344;DHT22;5217;43.960;10.954;2023-12-14T10:24:18;15.30;99.90
10344;DHT22;5217;43.960;10.954;2023-12-14T10:26:47;15.30;99.90
10344;DHT22;5217;43.960;10.954;2023-12-14T10:29:15;15.30;99.90
10344;DHT22;5217;43.960;10.954;2023-12-14T10:31:44;15.30;99.90
10344;DHT22;5217;43.960;10.954;2023-12-14T10:34:12;15.30;99.90
10344;DHT22;5217;43.960;10.954;2023-12-14T10:36:44;15.40;99.90
10344;DHT22;5217;43.960;10.954;2023-12-14T10:39:15;15.40;99.90
10344;DHT22;5217;43.960;10.954;2023-12-14T10:41:47;15.40;99.90
10344;DHT22;5217;43.960;10.954;2023-12-14T10:44:26;15.40;99.90
10344;DHT22;5217;43.960;10.954;2023-12-14T10:47:15;15.40;99.90
10344;DHT22;5217;43.960;10.954;2023-12-14T10:49:48;15.40;99.90
10344;DHT22;5217;43.960;10.954;2023-12-14T10:52:18;15.40;99.90
10344;DHT22;5217;43.960;10.954;2023-12-14T10:54:49;15.40;99.90
10344;DHT22;5217;43.960;10.954;2023-12-14T10:57:20;15.40;99.90
10344;DHT22;5217;43.960;10.954;2023-12-14T10:59:49;15.40;99.90
10344;DHT22;5217;43.960;10.954;2023-12-14T11:02:18;15.50;99.90
10344;DHT22;5217;43.960;10.954;2023-12-14T11:04:54;15.40;99.90
10344;DHT22;5217;43.960;10.954;2023-12-14T11:07:42;15.50;99.90
10344;DHT22;5217;43.960;10.954;2023-12-14T11:10:13;15.50;99.90
10344;DHT22;5217;43.960;10.954;2023-12-14T11:12:54;15.50;99.90
10344;DHT22;5217;43.960;10.954;2023-12-14T11:15:24;15.50;99.90
10344;DHT22;5217;43.960;10.954;2023-12-14T11:18:22;15.50;99.90
10344;DHT22;5217;43.960;10.954;2023-12-14T11:20:55;15.60;99.90
10344;DHT22;5217;43.960;10.954;2023-12-14T11:23:29;15.60;99.90
10344;DHT22;5217;43.960;10.954;2023-12-14T11:26:02;15.70;99.90
10344;DHT22;5217;43.960;10.954;2023-12-14T11:28:33;15.70;99.90
10344;DHT22;5217;43.960;10.954;2023-12-14T11:31:02;15.70;99.90
10344;DHT22;5217;43.960;10.954;2023-12-14T11:33:34;15.70;99.90
10344;DHT22;5217;43.960;10.954;2023-12-14T11:36:11;15.70;99.90
10344;DHT22;5217;43.960;10.954;2023-12-14T11:38:41;15.80;99.90
10344;DHT22;5217;43.960;10.954;2023-12-14T11:41:11;15.80;99.90
10344;DHT22;5217;43.960;10.954;2023-12-14T11:43:41;15.80;99.90
10344;DHT22;5217;43.960;10.954;2023-12-14T11:46:10;15.70;99.90
10344;DHT22;5217;43.960;10.954;2023-12-14T11:48:38;15.80;99.90
10344;DHT22;5217;43.960;10.954;2023-12-14T11:51:07;15.80;99.90
10344;DHT22;5217;43.960;10.954;2023-12-14T11:53:36;15.80;99.90
10344;DHT22;5217;43.960;10.954;2023-12-14T11:56:07;15.80;99.90
10344;DHT22;5217;43.960;10.954;2023-12-14T11:58:40;15.80;99.90
10344;DHT22;5217;43.960;10.954;2023-12-14T12:01:16;15.90;99.90
10344;DHT22;5217;43.960;10.954;2023-12-14T12:03:45;15.90;99.90
10344;DHT22;5217;43.960;10.954;2023-12-14T12:06:20;15.90;99.90
10344;DHT22;5217;43.960;10.954;2023-12-14T12:08:50;15.90;99.90
10344;DHT22;5217;43.960;10.954;2023-12-14T12:11:19;15.90;99.90
10344;DHT22;5217;43.960;10.954;2023-12-14T12:13:52;16.00;99.90
10344;DHT22;5217;43.960;10.954;2023-12-14T12:16:21;16.10;99.90
10344;DHT22;5217;43.960;10.954;2023-12-14T12:18:50;16.10;99.90
10344;DHT22;5217;43.960;10.954;2023-12-14T12:21:19;16.20;99.90
10344;DHT22;5217;43.960;10.954;2023-12-14T12:23:48;16.20;99.90
10344;DHT22;5217;43.960;10.954;2023-12-14T12:26:16;16.20;99.90
10344;DHT22;5217;43.960;10.954;2023-12-14T12:28:45;16.30;99.90
10344;DHT22;5217;43.960;10.954;2023-12-14T12:31:17;16.40;99.90
10344;DHT22;5217;43.960;10.954;2023-12-14T12:33:45;16.40;99.90
10344;DHT22;5217;43.960;10.954;2023-12-14T12:36:14;16.50;99.90
10344;DHT22;5217;43.960;10.954;2023-12-14T12:38:43;16.50;99.90
10344;DHT22;5217;43.960;10.954;2023-12-14T12:41:12;16.50;99.90
10344;DHT22;5217;43.960;10.954;2023-12-14T12:43:40;16.60;99.90
10344;DHT22;5217;43.960;10.954;2023-12-14T12:46:08;16.70;99.90
10344;DHT22;5217;43.960;10.954;2023-12-14T12:48:38;16.70;99.90
10344;DHT22;5217;43.960;10.954;2023-12-14T12:51:07;16.80;99.90
10344;DHT22;5217;43.960;10.954;2023-12-14T12:53:37;16.80;99.90
10344;DHT22;5217;43.960;10.954;2023-12-14T12:56:07;16.80;99.90
10344;DHT22;5217;43.960;10.954;2023-12-14T12:58:36;16.80;99.90
10344;DHT22;5217;43.960;10.954;2023-12-14T13:01:04;16.80;99.90
10344;DHT22;5217;43.960;10.954;2023-12-14T13:03:33;16.80;99.90
10344;DHT22;5217;43.960;10.954;2023-12-14T13:06:03;16.80;99.90
10344;DHT22;5217;43.960;10.954;2023-12-14T13:08:32;16.80;99.90
10344;DHT22;5217;43.960;10.954;2023-12-14T13:11:00;16.80;99.90
10344;DHT22;5217;43.960;10.954;2023-12-14T13:13:28;16.80;99.90
10344;DHT22;5217;43.960;10.954;2023-12-14T13:15:58;16.80;99.90
10344;DHT22;5217;43.960;10.954;2023-12-14T13:18:26;16.80;99.90
10344;DHT22;5217;43.960;10.954;2023-12-14T13:20:55;16.80;99.90
10344;DHT22;5217;43.960;10.954;2023-12-14T13:23:25;16.80;99.90
10344;DHT22;5217;43.960;10.954;2023-12-14T13:25:55;16.90;99.90
10344;DHT22;5217;43.960;10.954;2023-12-14T13:28:23;16.90;99.90
10344;DHT22;5217;43.960;10.954;2023-12-14T13:30:51;16.90;99.90
10344;DHT22;5217;43.960;10.954;2023-12-14T13:33:21;16.90;99.90
10344;DHT22;5217;43.960;10.954;2023-12-14T13:35:53;16.90;99.90
10344;DHT22;5217;43.960;10.954;2023-12-14T13:38:22;17.00;99.90
10344;DHT22;5217;43.960;10.954;2023-12-14T13:40:51;17.00;99.90
10344;DHT22;5217;43.960;10.954;2023-12-14T13:43:20;17.00;99.90
10344;DHT22;5217;43.960;10.954;2023-12-14T13:45:48;17.00;99.90
10344;DHT22;5217;43.960;10.954;2023-12-14T13:48:40;17.00;99.90
10344;DHT22;5217;43.960;10.954;2023-12-14T13:51:09;17.00;99.90
10344;DHT22;5217;43.960;10.954;2023-12-14T13:53:37;17.00;99.90
10344;DHT22;5217;43.960;10.954;2023-12-14T13:56:09;17.00;99.90
10344;DHT22;5217;43.960;10.954;2023-12-14T13:58:37;17.00;99.90
10344;DHT22;5217;43.960;10.954;2023-12-14T14:01:06;17.00;99.90
10344;DHT22;5217;43.960;10.954;2023-12-14T14:03:35;17.00;99.90
10344;DHT22;5217;43.960;10.954;2023-12-14T14:06:05;17.00;99.90
10344;DHT22;5217;43.960;10.954;2023-12-14T14:08:34;16.90;99.90
10344;DHT22;5217;43.960;10.954;2023-12-14T14:11:03;16.90;99.90
10344;DHT22;5217;43.960;10.954;2023-12-14T14:13:37;16.90;99.90
10344;DHT22;5217;43.960;10.954;2023-12-14T14:16:06;16.90;99.90
10344;DHT22;5217;43.960;10.954;2023-12-14T14:18:35;16.90;99.90
10344;DHT22;5217;43.960;10.954;2023-12-14T14:21:04;17.00;99.90
10344;DHT22;5217;43.960;10.954;2023-12-14T14:23:35;16.90;99.90
10344;DHT22;5217;43.960;10.954;2023-12-14T14:26:03;16.90;99.90
10344;DHT22;5217;43.960;10.954;2023-12-14T14:28:32;16.90;99.90
10344;DHT22;5217;43.960;10.954;2023-12-14T14:31:02;16.90;99.90
10344;DHT22;5217;43.960;10.954;2023-12-14T14:33:31;16.90;99.90
10344;DHT22;5217;43.960;10.954;2023-12-14T14:36:00;16.90;99.90
10344;DHT22;5217;43.960;10.954;2023-12-14T14:38:32;16.80;99.90
10344;DHT22;5217;43.960;10.954;2023-12-14T14:41:00;16.80;99.90
10344;DHT22;5217;43.960;10.954;2023-12-14T14:43:29;16.80;99.90
10344;DHT22;5217;43.960;10.954;2023-12-14T14:45:58;16.80;99.90
10344;DHT22;5217;43.960;10.954;2023-12-14T14:48:28;16.70;99.90
10344;DHT22;5217;43.960;10.954;2023-12-14T14:50:56;16.80;99.90
10344;DHT22;5217;43.960;10.954;2023-12-14T14:53:25;16.70;99.90
10344;DHT22;5217;43.960;10.954;2023-12-14T14:55:54;16.70;99.90
10344;DHT22;5217;43.960;10.954;2023-12-14T14:58:22;16.70;99.90
10344;DHT22;5217;43.960;10.954;2023-12-14T15:00:51;16.70;99.90
10344;DHT22;5217;43.960;10.954;2023-12-14T15:03:19;16.60;99.90
10344;DHT22;5217;43.960;10.954;2023-12-14T15:05:50;16.60;99.90
10344;DHT22;5217;43.960;10.954;2023-12-14T15:08:18;16.60;99.90
10344;DHT22;5217;43.960;10.954;2023-12-14T15:10:47;16.60;99.90
10344;DHT22;5217;43.960;10.954;2023-12-14T15:13:16;16.50;99.90
10344;DHT22;5217;43.960;10.954;2023-12-14T15:15:44;16.50;99.90
10344;DHT22;5217;43.960;10.954;2023-12-14T15:18:14;16.50;99.90
10344;DHT22;5217;43.960;10.954;2023-12-14T15:20:43;16.50;99.90
10344;DHT22;5217;43.960;10.954;2023-12-14T15:23:13;16.40;99.90
10344;DHT22;5217;43.960;10.954;2023-12-14T15:25:41;16.40;99.90
10344;DHT22;5217;43.960;10.954;2023-12-14T15:28:10;16.40;99.90
10344;DHT22;5217;43.960;10.954;2023-12-14T15:30:38;16.40;99.90
10344;DHT22;5217;43.960;10.954;2023-12-14T15:33:07;16.30;99.90
10344;DHT22;5217;43.960;10.954;2023-12-14T15:35:36;16.30;99.90
10344;DHT22;5217;43.960;10.954;2023-12-14T15:38:04;16.30;99.90
10344;DHT22;5217;43.960;10.954;2023-12-14T15:40:34;16.30;99.90
10344;DHT22;5217;43.960;10.954;2023-12-14T15:43:05;16.30;99.90
10344;DHT22;5217;43.960;10.954;2023-12-14T15:45:33;16.20;99.90
10344;DHT22;5217;43.960;10.954;2023-12-14T15:48:02;16.20;99.90
10344;DHT22;5217;43.960;10.954;2023-12-14T15:50:30;16.20;99.90